sensor_id;sensor_type;location;lat;lon;timestamp;pressure;altitude;pressure_sealevel;temperature;humidity
61786;BME280;47692;53.714;11.372;2024-03-08T00:01:35;101952.44;;;0.77;100.00
61786;BME280;47692;53.714;11.372;2024-03-08T00:04:00;101951.56;;;0.76;100.00
61786;BME280;47692;53.714;11.372;2024-03-08T00:06:26;101956.75;;;0.78;100.00
61786;BME280;47692;53.714;11.372;2024-03-08T00:08:51;101955.66;;;0.71;100.00
61786;BME280;47692;53.714;11.372;2024-03-08T00:11:17;101959.00;;;0.69;100.00
61786;BME280;47692;53.714;11.372;2024-03-08T00:13:42;101946.13;;;0.69;100.00
61786;BME280;47692;53.714;11.372;2024-03-08T00:16:07;101948.00;;;0.73;100.00
61786;BME280;47692;53.714;11.372;2024-03-08T00:18:34;101949.63;;;0.71;100.00
61786;BME280;47692;53.714;11.372;2024-03-08T00:21:00;101943.50;;;0.67;100.00
61786;BME280;47692;53.714;11.372;2024-03-08T00:23:25;101952.16;;;0.69;100.00
61786;BME280;47692;53.714;11.372;2024-03-08T00:25:51;101948.53;;;0.64;100.00
61786;BME280;47692;53.714;11.372;2024-03-08T00:28:16;101945.91;;;0.62;100.00
61786;BME280;47692;53.714;11.372;2024-03-08T00:30:43;101945.91;;;0.62;100.00
61786;BME280;47692;53.714;11.372;2024-03-08T00:33:10;101940.69;;;0.61;100.00
61786;BME280;47692;53.714;11.372;2024-03-08T00:35:35;101943.34;;;0.62;100.00
61786;BME280;47692;53.714;11.372;2024-03-08T00:38:01;101941.41;;;0.57;100.00
61786;BME280;47692;53.714;11.372;2024-03-08T00:40:26;101941.41;;;0.57;100.00
61786;BME280;47692;53.714;11.372;2024-03-08T00:42:53;101941.53;;;0.60;100.00
61786;BME280;47692;53.714;11.372;2024-03-08T00:45:18;101934.63;;;0.59;100.00
61786;BME280;47692;53.714;11.372;2024-03-08T00:47:43;101933.06;;;0.62;100.00
61786;BME280;47692;53.714;11.372;2024-03-08T00:50:09;101936.31;;;0.58;100.00
61786;BME280;47692;53.714;11.372;2024-03-08T00:52:36;101927.75;;;0.58;100.00
61786;BME280;47692;53.714;11.372;2024-03-08T00:55:01;101927.56;;;0.53;100.00
61786;BME280;47692;53.714;11.372;2024-03-08T00:57:27;101928.38;;;0.52;100.00
61786;BME280;47692;53.714;11.372;2024-03-08T00:59:53;101934.50;;;0.56;100.00
61786;BME280;47692;53.714;11.372;2024-03-08T01:02:18;101928.31;;;0.51;100.00
61786;BME280;47692;53.714;11.372;2024-03-08T01:04:44;101921.59;;;0.54;100.00
61786;BME280;47692;53.714;11.372;2024-03-08T01:07:10;101924.88;;;0.50;100.00
61786;BME280;47692;53.714;11.372;2024-03-08T01:09:35;101917.00;;;0.45;100.00
61786;BME280;47692;53.714;11.372;2024-03-08T01:12:01;101901.53;;;0.44;100.00
61786;BME280;47692;53.714;11.372;2024-03-08T01:14:26;101917.75;;;0.43;100.00
61786;BME280;47692;53.714;11.372;2024-03-08T01:16:52;101905.72;;;0.42;100.00
61786;BME280;47692;53.714;11.372;2024-03-08T01:19:17;101902.19;;;0.40;100.00
61786;BME280;47692;53.714;11.372;2024-03-08T01:21:43;101900.53;;;0.40;100.00
61786;BME280;47692;53.714;11.372;2024-03-08T01:24:08;101897.91;;;0.39;100.00
61786;BME280;47692;53.714;11.372;2024-03-08T01:26:34;101895.44;;;0.42;100.00
61786;BME280;47692;53.714;11.372;2024-03-08T01:29:00;101895.34;;;0.39;100.00
61786;BME280;47692;53.714;11.372;2024-03-08T01:31:26;101890.31;;;0.42;100.00
61786;BME280;47692;53.714;11.372;2024-03-08T01:33:54;101880.78;;;0.39;100.00
61786;BME280;47692;53.714;11.372;2024-03-08T01:36:19;101888.69;;;0.44;100.00
61786;BME280;47692;53.714;11.372;2024-03-08T01:38:45;101883.41;;;0.41;100.00
61786;BME280;47692;53.714;11.372;2024-03-08T01:41:10;101876.50;;;0.40;100.00
61786;BME280;47692;53.714;11.372;2024-03-08T01:43:37;101881.78;;;0.43;100.00
61786;BME280;47692;53.714;11.372;2024-03-08T01:46:04;101877.34;;;0.39;100.00
61786;BME280;47692;53.714;11.372;2024-03-08T01:48:31;101870.22;;;0.31;100.00
61786;BME280;47692;53.714;11.372;2024-03-08T01:50:57;101867.66;;;0.31;100.00
61786;BME280;47692;53.714;11.372;2024-03-08T01:53:24;101861.69;;;0.32;100.00
61786;BME280;47692;53.714;11.372;2024-03-08T01:55:49;101858.91;;;0.26;100.00
61786;BME280;47692;53.714;11.372;2024-03-08T01:58:17;101856.44;;;0.29;100.00
61786;BME280;47692;53.714;11.372;2024-03-08T02:00:46;101845.13;;;0.24;100.00
61786;BME280;47692;53.714;11.372;2024-03-08T02:03:14;101844.31;;;0.25;100.00
61786;BME280;47692;53.714;11.372;2024-03-08T02:05:40;101840.75;;;0.22;100.00
61786;BME280;47692;53.714;11.372;2024-03-08T02:08:07;101845.13;;;0.24;100.00
61786;BME280;47692;53.714;11.372;2024-03-08T02:10:33;101839.03;;;0.22;100.00
61786;BME280;47692;53.714;11.372;2024-03-08T02:13:01;101848.50;;;0.23;100.00
61786;BME280;47692;53.714;11.372;2024-03-08T02:18:15;101846.88;;;0.25;100.00
61786;BME280;47692;53.714;11.372;2024-03-08T02:20:42;101849.44;;;0.25;100.00
61786;BME280;47692;53.714;11.372;2024-03-08T02:23:07;101843.41;;;0.25;100.00
61786;BME280;47692;53.714;11.372;2024-03-08T02:25:33;101843.34;;;0.23;100.00
61786;BME280;47692;53.714;11.372;2024-03-08T02:27:59;101833.63;;;0.14;100.00
61786;BME280;47692;53.714;11.372;2024-03-08T02:30:25;101833.66;;;0.16;100.00
61786;BME280;47692;53.714;11.372;2024-03-08T02:32:54;101828.59;;;0.18;100.00
61786;BME280;47692;53.714;11.372;2024-03-08T02:35:20;101826.72;;;0.13;100.00
61786;BME280;47692;53.714;11.372;2024-03-08T02:37:45;101832.84;;;0.17;100.00
61786;BME280;47692;53.714;11.372;2024-03-08T02:40:13;101826.09;;;0.19;100.00
61786;BME280;47692;53.714;11.372;2024-03-08T02:42:38;101826.81;;;0.15;100.00
61786;BME280;47692;53.714;11.372;2024-03-08T02:45:04;101831.03;;;0.14;100.00
61786;BME280;47692;53.714;11.372;2024-03-08T02:47:31;101822.41;;;0.12;100.00
61786;BME280;47692;53.714;11.372;2024-03-08T02:49:56;101825.03;;;0.14;100.00
61786;BME280;47692;53.714;11.372;2024-03-08T02:52:21;101820.50;;;0.07;100.00
61786;BME280;47692;53.714;11.372;2024-03-08T02:54:48;101824.91;;;0.11;100.00
61786;BME280;47692;53.714;11.372;2024-03-08T02:57:13;101824.81;;;0.08;100.00
61786;BME280;47692;53.714;11.372;2024-03-08T02:59:40;101827.25;;;0.05;100.00
61786;BME280;47692;53.714;11.372;2024-03-08T03:02:05;101822.34;;;0.11;100.00
61786;BME280;47692;53.714;11.372;2024-03-08T03:04:32;101821.31;;;0.06;100.00
61786;BME280;47692;53.714;11.372;2024-03-08T03:06:58;101823.69;;;0.01;100.00
61786;BME280;47692;53.714;11.372;2024-03-08T03:09:23;101823.78;;;0.03;100.00
61786;BME280;47692;53.714;11.372;2024-03-08T03:11:55;101820.25;;;0.01;100.00
61786;BME280;47692;53.714;11.372;2024-03-08T03:14:21;101820.25;;;0.01;100.00
61786;BME280;47692;53.714;11.372;2024-03-08T03:16:47;101818.88;;;0.09;100.00
61786;BME280;47692;53.714;11.372;2024-03-08T03:19:12;101815.22;;;0.04;100.00
61786;BME280;47692;53.714;11.372;2024-03-08T03:21:38;101818.72;;;0.06;100.00
61786;BME280;47692;53.714;11.372;2024-03-08T03:24:04;101817.75;;;0.02;100.00
61786;BME280;47692;53.714;11.372;2024-03-08T03:26:35;101818.88;;;0.09;100.00
61786;BME280;47692;53.714;11.372;2024-03-08T03:29:02;101819.44;;;0.02;100.00
61786;BME280;47692;53.714;11.372;2024-03-08T03:31:28;101820.31;;;0.02;100.00
61786;BME280;47692;53.714;11.372;2024-03-08T03:33:54;101815.13;;;0.01;100.00
61786;BME280;47692;53.714;11.372;2024-03-08T03:36:19;101811.50;;;-0.05;100.00
61786;BME280;47692;53.714;11.372;2024-03-08T03:38:45;101798.44;;;-0.11;100.00
61786;BME280;47692;53.714;11.372;2024-03-08T03:41:10;101801.09;;;-0.08;100.00
61786;BME280;47692;53.714;11.372;2024-03-08T03:43:36;101797.63;;;-0.10;100.00
61786;BME280;47692;53.714;11.372;2024-03-08T03:46:06;101809.69;;;-0.07;100.00
61786;BME280;47692;53.714;11.372;2024-03-08T03:48:32;101802.84;;;-0.07;100.00
61786;BME280;47692;53.714;11.372;2024-03-08T03:50:57;101804.38;;;-0.12;100.00
61786;BME280;47692;53.714;11.372;2024-03-08T03:53:23;101796.78;;;-0.09;100.00
61786;BME280;47692;53.714;11.372;2024-03-08T03:55:48;101805.31;;;-0.10;100.00
61786;BME280;47692;53.714;11.372;2024-03-08T03:58:13;101799.09;;;-0.15;100.00
61786;BME280;47692;53.714;11.372;2024-03-08T04:00:39;101802.63;;;-0.13;100.00
61786;BME280;47692;53.714;11.372;2024-03-08T04:03:04;101808.50;;;-0.15;100.00
61786;BME280;47692;53.714;11.372;2024-03-08T04:05:30;101799.75;;;-0.21;100.00
61786;BME280;47692;53.714;11.372;2024-03-08T04:07:56;101797.16;;;-0.22;100.00
61786;BME280;47692;53.714;11.372;2024-03-08T04:10:22;101797.38;;;-0.16;100.00
61786;BME280;47692;53.714;11.372;2024-03-08T04:12:47;101803.44;;;-0.14;100.00
61786;BME280;47692;53.714;11.372;2024-03-08T04:15:14;101802.53;;;-0.16;100.00
61786;BME280;47692;53.714;11.372;2024-03-08T04:17:40;101793.75;;;-0.21;100.00
61786;BME280;47692;53.714;11.372;2024-03-08T04:20:06;101807.66;;;-0.16;100.00
61786;BME280;47692;53.714;11.372;2024-03-08T04:22:38;101798.88;;;-0.21;100.00
61786;BME280;47692;53.714;11.372;2024-03-08T04:25:05;101798.00;;;-0.22;100.00
61786;BME280;47692;53.714;11.372;2024-03-08T04:27:31;101800.63;;;-0.20;100.00
61786;BME280;47692;53.714;11.372;2024-03-08T04:29:58;101789.31;;;-0.25;100.00
61786;BME280;47692;53.714;11.372;2024-03-08T04:32:24;101793.63;;;-0.24;100.00
61786;BME280;47692;53.714;11.372;2024-03-08T04:34:50;101790.34;;;-0.20;100.00
61786;BME280;47692;53.714;11.372;2024-03-08T04:37:15;101788.56;;;-0.23;100.00
61786;BME280;47692;53.714;11.372;2024-03-08T04:39:43;101781.59;;;-0.25;100.00
61786;BME280;47692;53.714;11.372;2024-03-08T04:42:09;101792.25;;;-0.16;100.00
61786;BME280;47692;53.714;11.372;2024-03-08T04:44:35;101788.75;;;-0.18;100.00
61786;BME280;47692;53.714;11.372;2024-03-08T04:47:01;101785.19;;;-0.22;100.00
61786;BME280;47692;53.714;11.372;2024-03-08T04:49:27;101784.13;;;-0.27;100.00
61786;BME280;47692;53.714;11.372;2024-03-08T04:51:53;101784.19;;;-0.25;100.00
61786;BME280;47692;53.714;11.372;2024-03-08T04:54:18;101782.41;;;-0.26;100.00
61786;BME280;47692;53.714;11.372;2024-03-08T04:56:44;101783.59;;;-0.18;100.00
61786;BME280;47692;53.714;11.372;2024-03-08T04:59:09;101781.75;;;-0.22;100.00
61786;BME280;47692;53.714;11.372;2024-03-08T05:01:34;101777.41;;;-0.23;100.00
61786;BME280;47692;53.714;11.372;2024-03-08T05:04:03;101782.75;;;-0.19;100.00
61786;BME280;47692;53.714;11.372;2024-03-08T05:06:28;101769.34;;;-0.33;100.00
61786;BME280;47692;53.714;11.372;2024-03-08T05:08:55;101770.19;;;-0.34;100.00
61786;BME280;47692;53.714;11.372;2024-03-08T05:11:20;101772.06;;;-0.29;100.00
61786;BME280;47692;53.714;11.372;2024-03-08T05:13:46;101769.47;;;-0.29;100.00
61786;BME280;47692;53.714;11.372;2024-03-08T05:16:11;101765.88;;;-0.35;100.00
61786;BME280;47692;53.714;11.372;2024-03-08T05:18:37;101758.97;;;-0.36;100.00
61786;BME280;47692;53.714;11.372;2024-03-08T05:21:02;101753.78;;;-0.37;100.00
61786;BME280;47692;53.714;11.372;2024-03-08T05:23:29;101764.22;;;-0.33;100.00
61786;BME280;47692;53.714;11.372;2024-03-08T05:25:55;101759.94;;;-0.34;100.00
61786;BME280;47692;53.714;11.372;2024-03-08T05:28:20;101758.84;;;-0.39;100.00
61786;BME280;47692;53.714;11.372;2024-03-08T05:30:46;101758.84;;;-0.39;100.00
61786;BME280;47692;53.714;11.372;2024-03-08T05:33:11;101757.13;;;-0.40;100.00
61786;BME280;47692;53.714;11.372;2024-03-08T05:35:39;101765.88;;;-0.35;100.00
61786;BME280;47692;53.714;11.372;2024-03-08T05:38:05;101758.03;;;-0.38;100.00
61786;BME280;47692;53.714;11.372;2024-03-08T05:40:32;101765.88;;;-0.35;100.00
61786;BME280;47692;53.714;11.372;2024-03-08T05:42:58;101760.66;;;-0.36;100.00
61786;BME280;47692;53.714;11.372;2024-03-08T05:45:24;101763.16;;;-0.38;100.00
61786;BME280;47692;53.714;11.372;2024-03-08T05:47:50;101769.00;;;-0.42;100.00
61786;BME280;47692;53.714;11.372;2024-03-08T05:50:17;101760.38;;;-0.44;100.00
61786;BME280;47692;53.714;11.372;2024-03-08T05:52:42;101762.13;;;-0.43;100.00
61786;BME280;47692;53.714;11.372;2024-03-08T05:55:08;101762.75;;;-0.49;100.00
61786;BME280;47692;53.714;11.372;2024-03-08T05:57:35;101759.50;;;-0.44;100.00
61786;BME280;47692;53.714;11.372;2024-03-08T06:00:03;101765.50;;;-0.44;100.00
61786;BME280;47692;53.714;11.372;2024-03-08T06:02:29;101751.66;;;-0.47;100.00
61786;BME280;47692;53.714;11.372;2024-03-08T06:04:54;101760.03;;;-0.53;100.00
61786;BME280;47692;53.714;11.372;2024-03-08T06:07:20;101754.88;;;-0.53;100.00
61786;BME280;47692;53.714;11.372;2024-03-08T06:09:45;101754.75;;;-0.56;100.00
61786;BME280;47692;53.714;11.372;2024-03-08T06:12:13;101745.06;;;-0.63;100.00
61786;BME280;47692;53.714;11.372;2024-03-08T06:14:44;101752.28;;;-0.55;100.00
61786;BME280;47692;53.714;11.372;2024-03-08T06:17:09;101772.28;;;-0.46;100.00
61786;BME280;47692;53.714;11.372;2024-03-08T06:19:36;101765.97;;;-0.54;100.00
61786;BME280;47692;53.714;11.372;2024-03-08T06:22:01;101771.09;;;-0.54;100.00
61786;BME280;47692;53.714;11.372;2024-03-08T06:24:33;101769.53;;;-0.51;100.00
61786;BME280;47692;53.714;11.372;2024-03-08T06:27:01;101773.19;;;-0.44;100.00
61786;BME280;47692;53.714;11.372;2024-03-08T06:29:26;101762.00;;;-0.46;100.00
61786;BME280;47692;53.714;11.372;2024-03-08T06:31:52;101772.28;;;-0.46;100.00
61786;BME280;47692;53.714;11.372;2024-03-08T06:34:18;101767.00;;;-0.49;100.00
61786;BME280;47692;53.714;11.372;2024-03-08T06:36:44;101770.28;;;-0.53;100.00
61786;BME280;47692;53.714;11.372;2024-03-08T06:39:09;101758.38;;;-0.51;100.00
61786;BME280;47692;53.714;11.372;2024-03-08T06:41:37;101756.50;;;-0.55;100.00
61786;BME280;47692;53.714;11.372;2024-03-08T06:44:03;101759.88;;;-0.56;100.00
61786;BME280;47692;53.714;11.372;2024-03-08T06:46:28;101766.25;;;-0.46;100.00
61786;BME280;47692;53.714;11.372;2024-03-08T06:48:54;101767.25;;;-0.43;100.00
61786;BME280;47692;53.714;11.372;2024-03-08T06:51:19;101772.56;;;-0.38;100.00
61786;BME280;47692;53.714;11.372;2024-03-08T06:53:44;101771.91;;;-0.33;100.00
61786;BME280;47692;53.714;11.372;2024-03-08T06:56:10;101767.78;;;-0.29;100.00
61786;BME280;47692;53.714;11.372;2024-03-08T06:58:35;101773.00;;;-0.27;100.00
61786;BME280;47692;53.714;11.372;2024-03-08T07:01:00;101766.78;;;-0.33;100.00
61786;BME280;47692;53.714;11.372;2024-03-08T07:03:29;101771.25;;;-0.28;100.00
61786;BME280;47692;53.714;11.372;2024-03-08T07:05:55;101772.09;;;-0.28;100.00
61786;BME280;47692;53.714;11.372;2024-03-08T07:08:21;101771.34;;;-0.25;100.00
61786;BME280;47692;53.714;11.372;2024-03-08T07:10:48;101772.09;;;-0.28;100.00
61786;BME280;47692;53.714;11.372;2024-03-08T07:13:14;101774.63;;;-0.29;100.00
61786;BME280;47692;53.714;11.372;2024-03-08T07:15:40;101767.63;;;-0.34;100.00
61786;BME280;47692;53.714;11.372;2024-03-08T07:18:05;101771.34;;;-0.25;100.00
61786;BME280;47692;53.714;11.372;2024-03-08T07:20:31;101765.97;;;-0.31;100.00
61786;BME280;47692;53.714;11.372;2024-03-08T07:22:56;101776.63;;;-0.22;100.00
61786;BME280;47692;53.714;11.372;2024-03-08T07:25:22;101777.53;;;-0.20;100.00
61786;BME280;47692;53.714;11.372;2024-03-08T07:27:54;101770.06;;;-0.14;100.00
61786;BME280;47692;53.714;11.372;2024-03-08T07:30:22;101775.31;;;-0.11;100.00
61786;BME280;47692;53.714;11.372;2024-03-08T07:33:06;101773.56;;;-0.12;100.00
61786;BME280;47692;53.714;11.372;2024-03-08T07:35:33;101766.69;;;-0.13;100.00
61786;BME280;47692;53.714;11.372;2024-03-08T07:37:58;101772.72;;;-0.12;100.00
61786;BME280;47692;53.714;11.372;2024-03-08T07:40:25;101773.81;;;-0.06;100.00
61786;BME280;47692;53.714;11.372;2024-03-08T07:42:51;101780.13;;;0.03;100.00
61786;BME280;47692;53.714;11.372;2024-03-08T07:45:16;101769.09;;;0.05;100.00
61786;BME280;47692;53.714;11.372;2024-03-08T07:47:42;101775.94;;;0.06;100.00
61786;BME280;47692;53.714;11.372;2024-03-08T07:50:08;101772.63;;;0.09;100.00
61786;BME280;47692;53.714;11.372;2024-03-08T07:52:34;101765.75;;;0.08;100.00
61786;BME280;47692;53.714;11.372;2024-03-08T07:55:00;101763.19;;;0.08;100.00
61786;BME280;47692;53.714;11.372;2024-03-08T07:57:25;101772.75;;;0.12;100.00
61786;BME280;47692;53.714;11.372;2024-03-08T07:59:51;101770.13;;;0.10;100.00
61786;BME280;47692;53.714;11.372;2024-03-08T08:02:16;101768.22;;;0.06;100.00
61786;BME280;47692;53.714;11.372;2024-03-08T08:04:42;101767.50;;;0.09;100.00
61786;BME280;47692;53.714;11.372;2024-03-08T08:07:09;101767.59;;;0.12;100.00
61786;BME280;47692;53.714;11.372;2024-03-08T08:09:35;101752.09;;;0.09;100.00
61786;BME280;47692;53.714;11.372;2024-03-08T08:12:00;101763.19;;;0.08;100.00
61786;BME280;47692;53.714;11.372;2024-03-08T08:14:28;101767.00;;;0.19;100.00
61786;BME280;47692;53.714;11.372;2024-03-08T08:16:54;101772.44;;;0.27;100.00
61786;BME280;47692;53.714;11.372;2024-03-08T08:19:21;101777.91;;;0.36;100.00
61786;BME280;47692;53.714;11.372;2024-03-08T08:21:46;101772.91;;;0.41;100.00
61786;BME280;47692;53.714;11.372;2024-03-08T08:24:12;101774.28;;;0.55;100.00
61786;BME280;47692;53.714;11.372;2024-03-08T08:26:37;101780.72;;;0.68;100.00
61786;BME280;47692;53.714;11.372;2024-03-08T08:29:02;101784.34;;;0.73;100.00
61786;BME280;47692;53.714;11.372;2024-03-08T08:31:28;101786.72;;;0.93;100.00
61786;BME280;47692;53.714;11.372;2024-03-08T08:33:53;101784.06;;;0.90;100.00
61786;BME280;47692;53.714;11.372;2024-03-08T08:36:24;101770.91;;;0.82;100.00
61786;BME280;47692;53.714;11.372;2024-03-08T08:38:49;101768.16;;;0.76;100.00
61786;BME280;47692;53.714;11.372;2024-03-08T08:41:15;101769.81;;;0.74;100.00
61786;BME280;47692;53.714;11.372;2024-03-08T08:43:42;101761.97;;;0.71;100.00
61786;BME280;47692;53.714;11.372;2024-03-08T08:46:10;101756.00;;;0.72;100.00
61786;BME280;47692;53.714;11.372;2024-03-08T08:48:40;101757.75;;;0.73;100.00
61786;BME280;47692;53.714;11.372;2024-03-08T08:51:09;101763.84;;;0.75;100.00
61786;BME280;47692;53.714;11.372;2024-03-08T08:53:38;101762.34;;;0.82;100.00
61786;BME280;47692;53.714;11.372;2024-03-08T08:56:03;101753.13;;;0.88;100.00
61786;BME280;47692;53.714;11.372;2024-03-08T08:58:35;101763.00;;;1.02;100.00
61786;BME280;47692;53.714;11.372;2024-03-08T09:01:01;101762.72;;;1.18;100.00
61786;BME280;47692;53.714;11.372;2024-03-08T09:03:26;101764.50;;;1.21;100.00
61786;BME280;47692;53.714;11.372;2024-03-08T09:05:53;101765.84;;;1.37;100.00
61786;BME280;47692;53.714;11.372;2024-03-08T09:08:18;101766.78;;;1.39;100.00
61786;BME280;47692;53.714;11.372;2024-03-08T09:10:45;101771.16;;;1.41;100.00
61786;BME280;47692;53.714;11.372;2024-03-08T09:13:10;101766.78;;;1.39;100.00
61786;BME280;47692;53.714;11.372;2024-03-08T09:15:38;101768.56;;;1.41;100.00
61786;BME280;47692;53.714;11.372;2024-03-08T09:18:06;101769.00;;;1.55;100.00
61786;BME280;47692;53.714;11.372;2024-03-08T09:20:31;101773.03;;;1.74;100.00
61786;BME280;47692;53.714;11.372;2024-03-08T09:22:57;101771.69;;;1.87;100.00
61786;BME280;47692;53.714;11.372;2024-03-08T09:25:22;101772.53;;;1.86;100.00
61786;BME280;47692;53.714;11.372;2024-03-08T09:27:48;101762.38;;;1.91;100.00
61786;BME280;47692;53.714;11.372;2024-03-08T09:30:13;101772.06;;;2.00;100.00
61786;BME280;47692;53.714;11.372;2024-03-08T09:32:40;101763.75;;;2.10;100.00
61786;BME280;47692;53.714;11.372;2024-03-08T09:35:06;101764.13;;;2.22;100.00
61786;BME280;47692;53.714;11.372;2024-03-08T09:37:33;101768.53;;;2.26;100.00
61786;BME280;47692;53.714;11.372;2024-03-08T09:39:59;101762.56;;;2.28;100.00
61786;BME280;47692;53.714;11.372;2024-03-08T09:42:24;101761.00;;;2.33;100.00
61786;BME280;47692;53.714;11.372;2024-03-08T09:44:50;101762.97;;;2.43;100.00
61786;BME280;47692;53.714;11.372;2024-03-08T09:47:16;101761.91;;;2.67;100.00
61786;BME280;47692;53.714;11.372;2024-03-08T09:49:42;101758.56;;;2.71;100.00
61786;BME280;47692;53.714;11.372;2024-03-08T09:52:08;101748.25;;;2.71;100.00
61786;BME280;47692;53.714;11.372;2024-03-08T09:54:35;101750.25;;;2.81;100.00
61786;BME280;47692;53.714;11.372;2024-03-08T09:57:01;101751.66;;;3.03;100.00
61786;BME280;47692;53.714;11.372;2024-03-08T09:59:29;101746.81;;;3.16;99.92
61786;BME280;47692;53.714;11.372;2024-03-08T10:02:01;101744.41;;;3.23;98.35
61786;BME280;47692;53.714;11.372;2024-03-08T10:04:28;101740.19;;;3.27;97.15
61786;BME280;47692;53.714;11.372;2024-03-08T10:06:57;101740.47;;;3.39;96.90
61786;BME280;47692;53.714;11.372;2024-03-08T10:09:24;101738.94;;;3.48;96.36
61786;BME280;47692;53.714;11.372;2024-03-08T10:11:56;101737.28;;;3.50;96.00
61786;BME280;47692;53.714;11.372;2024-03-08T10:14:23;101734.72;;;3.51;95.49
61786;BME280;47692;53.714;11.372;2024-03-08T10:16:49;101725.28;;;3.52;95.08
61786;BME280;47692;53.714;11.372;2024-03-08T10:19:14;101721.16;;;3.62;95.02
61786;BME280;47692;53.714;11.372;2024-03-08T10:21:51;101724.88;;;3.73;94.68
61786;BME280;47692;53.714;11.372;2024-03-08T10:24:22;101722.34;;;3.76;94.41
61786;BME280;47692;53.714;11.372;2024-03-08T10:26:51;101719.97;;;3.85;94.71
61786;BME280;47692;53.714;11.372;2024-03-08T10:29:18;101720.25;;;3.99;94.50
61786;BME280;47692;53.714;11.372;2024-03-08T10:31:44;101729.19;;;4.15;93.60
61786;BME280;47692;53.714;11.372;2024-03-08T10:34:10;101712.16;;;4.27;92.73
61786;BME280;47692;53.714;11.372;2024-03-08T10:36:36;101714.03;;;4.34;92.14
61786;BME280;47692;53.714;11.372;2024-03-08T10:39:08;101712.41;;;4.39;92.38
61786;BME280;47692;53.714;11.372;2024-03-08T10:41:39;101721.34;;;4.57;91.56
61786;BME280;47692;53.714;11.372;2024-03-08T10:49:44;101710.31;;;4.67;89.44
61786;BME280;47692;53.714;11.372;2024-03-08T10:52:14;101711.44;;;4.81;90.49
61786;BME280;47692;53.714;11.372;2024-03-08T10:54:41;101712.72;;;5.08;90.41
61786;BME280;47692;53.714;11.372;2024-03-08T10:57:08;101715.69;;;5.33;88.56
61786;BME280;47692;53.714;11.372;2024-03-08T10:59:35;101714.13;;;5.44;86.73
61786;BME280;47692;53.714;11.372;2024-03-08T11:02:01;101701.06;;;5.37;85.49
61786;BME280;47692;53.714;11.372;2024-03-08T11:04:27;101695.84;;;5.33;84.84
61786;BME280;47692;53.714;11.372;2024-03-08T11:07:00;101702.13;;;5.51;85.21
61786;BME280;47692;53.714;11.372;2024-03-08T11:09:29;101693.63;;;5.60;84.00
61786;BME280;47692;53.714;11.372;2024-03-08T11:14:47;101688.97;;;6.00;82.10
61786;BME280;47692;53.714;11.372;2024-03-08T11:17:21;101683.66;;;5.94;81.10
61786;BME280;47692;53.714;11.372;2024-03-08T11:19:48;101680.22;;;5.92;82.37
61786;BME280;47692;53.714;11.372;2024-03-08T11:22:21;101675.28;;;6.13;82.69
61786;BME280;47692;53.714;11.372;2024-03-08T11:24:49;101680.72;;;6.38;80.83
61786;BME280;47692;53.714;11.372;2024-03-08T11:27:15;101669.63;;;6.53;78.53
61786;BME280;47692;53.714;11.372;2024-03-08T11:29:40;101661.13;;;6.68;77.11
61786;BME280;47692;53.714;11.372;2024-03-08T11:32:14;101665.59;;;6.88;75.31
61786;BME280;47692;53.714;11.372;2024-03-08T11:34:41;101663.06;;;6.97;74.52
61786;BME280;47692;53.714;11.372;2024-03-08T11:37:18;101659.72;;;7.12;73.64
61786;BME280;47692;53.714;11.372;2024-03-08T11:39:46;101653.66;;;7.15;72.87
61786;BME280;47692;53.714;11.372;2024-03-08T11:42:14;101639.84;;;7.19;71.87
61786;BME280;47692;53.714;11.372;2024-03-08T11:44:39;101636.47;;;7.34;71.08
61786;BME280;47692;53.714;11.372;2024-03-08T11:47:09;101634.81;;;7.53;70.93
61786;BME280;47692;53.714;11.372;2024-03-08T11:49:36;101638.38;;;7.67;70.78
61786;BME280;47692;53.714;11.372;2024-03-08T11:52:01;101636.69;;;7.83;71.24
61786;BME280;47692;53.714;11.372;2024-03-08T11:54:28;101629.81;;;8.02;70.39
61786;BME280;47692;53.714;11.372;2024-03-08T11:56:56;101626.31;;;7.99;66.84
61786;BME280;47692;53.714;11.372;2024-03-08T11:59:26;101622.00;;;8.18;65.00
61786;BME280;47692;53.714;11.372;2024-03-08T12:02:05;101617.69;;;8.29;63.97
61786;BME280;47692;53.714;11.372;2024-03-08T12:04:31;101628.16;;;8.48;63.55
61786;BME280;47692;53.714;11.372;2024-03-08T12:07:00;101616.00;;;8.56;62.86
61786;BME280;47692;53.714;11.372;2024-03-08T12:09:35;101616.88;;;8.78;62.67
61786;BME280;47692;53.714;11.372;2024-03-08T12:12:02;101623.78;;;8.90;63.12
61786;BME280;47692;53.714;11.372;2024-03-08T12:14:29;101619.44;;;9.14;64.23
61786;BME280;47692;53.714;11.372;2024-03-08T12:16:54;101611.56;;;9.31;63.75
61786;BME280;47692;53.714;11.372;2024-03-08T12:19:20;101606.28;;;9.45;63.27
61786;BME280;47692;53.714;11.372;2024-03-08T12:21:45;101594.97;;;9.55;63.22
61786;BME280;47692;53.714;11.372;2024-03-08T12:24:15;101596.69;;;9.62;62.21
61786;BME280;47692;53.714;11.372;2024-03-08T12:26:44;101593.25;;;9.45;62.59
61786;BME280;47692;53.714;11.372;2024-03-08T12:29:17;101580.19;;;9.59;63.65
61786;BME280;47692;53.714;11.372;2024-03-08T12:31:45;101581.00;;;9.68;61.39
61786;BME280;47692;53.714;11.372;2024-03-08T12:34:12;101590.44;;;9.91;59.87
61786;BME280;47692;53.714;11.372;2024-03-08T12:36:44;101567.88;;;9.84;56.92
61786;BME280;47692;53.714;11.372;2024-03-08T12:39:13;101552.28;;;9.76;56.36
61786;BME280;47692;53.714;11.372;2024-03-08T12:41:40;101562.66;;;9.82;58.92
61786;BME280;47692;53.714;11.372;2024-03-08T12:44:06;101566.06;;;9.94;59.40
61786;BME280;47692;53.714;11.372;2024-03-08T12:46:32;101557.44;;;9.82;59.05